To NAV CANADA Home Page Login to a new session Search on AWWS site Feedback and Comments Disclaimer Vers la page française équivalente Tips FAQ What's new on the site To the Forecasts and Observations / NOTAM section To "File a Flight Plan" website Publications and other links Update of the User's profile FIC Telephone Numbers My Weather Data Folder Route Weather Data Regional Weather Data Local Weather Data To the Forecasts and Observations / NOTAM section
Request Generated 04/18/2014 at 00:38:21 UTC . Weather information available at that time is displayed.

METAR/TAF

GOOSE BAY/NL    

METAR CYYR 180000Z 25011KT 15SM SKC M05/M18 A3059 RMK SLP365=
METAR CYYR 172300Z 26011KT 15SM SKC M04/M19 A3059 RMK SLP362=
METAR CYYR 172200Z 28019G29KT 15SM SKC M04/M19 A3057 RMK SLP358=

TAF CYYR 172330Z 1800/1824 26012G22KT P6SM SKC
BECMG 1804/1806 24010KT
FM181400 24015G25KT P6SM BKN120
FM181800 24015G25KT P6SM BKN050 TEMPO 1818/1824 P6SM -SHSNRA
OVC040
RMK NXT FCST BY 180600Z=
Your time UTC time
Weather data provided by Environment Canada and NAV CANADA